sensor_id;sensor_type;location;lat;lon;timestamp;pressure;altitude;pressure_sealevel;temperature;humidity
76074;BME280;64776;42.636;24.358;2023-02-12T00:02:29;90679.97;;;-4.62;64.72
76074;BME280;64776;42.636;24.358;2023-02-12T00:05:30;90690.00;;;-4.64;64.79
76074;BME280;64776;42.636;24.358;2023-02-12T00:08:31;90685.50;;;-4.67;64.73
76074;BME280;64776;42.636;24.358;2023-02-12T00:11:32;90685.84;;;-4.72;64.71
76074;BME280;64776;42.636;24.358;2023-02-12T00:14:33;90682.50;;;-4.73;65.95
76074;BME280;64776;42.636;24.358;2023-02-12T00:17:35;90680.66;;;-4.69;65.59
76074;BME280;64776;42.636;24.358;2023-02-12T00:20:37;90669.13;;;-4.71;65.92
76074;BME280;64776;42.636;24.358;2023-02-12T00:23:39;90662.50;;;-4.58;65.67
76074;BME280;64776;42.636;24.358;2023-02-12T00:26:40;90669.53;;;-4.62;64.85
76074;BME280;64776;42.636;24.358;2023-02-12T00:29:41;90671.34;;;-4.73;64.90
76074;BME280;64776;42.636;24.358;2023-02-12T00:32:43;90666.91;;;-4.69;65.06
76074;BME280;64776;42.636;24.358;2023-02-12T00:35:44;90669.13;;;-4.71;64.44
76074;BME280;64776;42.636;24.358;2023-02-12T00:38:46;90667.28;;;-4.67;65.49
76074;BME280;64776;42.636;24.358;2023-02-12T00:41:47;90659.84;;;-4.65;65.66
76074;BME280;64776;42.636;24.358;2023-02-12T00:44:47;90668.03;;;-4.63;64.74
76074;BME280;64776;42.636;24.358;2023-02-12T00:47:51;90658.75;;;-4.64;64.65
76074;BME280;64776;42.636;24.358;2023-02-12T00:50:51;90658.31;;;-4.73;64.83
76074;BME280;64776;42.636;24.358;2023-02-12T00:53:52;90650.53;;;-4.73;65.16
76074;BME280;64776;42.636;24.358;2023-02-12T00:56:53;90648.66;;;-4.76;65.38
76074;BME280;64776;42.636;24.358;2023-02-12T00:59:54;90645.66;;;-4.82;65.26
76074;BME280;64776;42.636;24.358;2023-02-12T01:02:56;90628.19;;;-4.85;65.92
76074;BME280;64776;42.636;24.358;2023-02-12T01:05:57;90622.97;;;-4.81;65.59
76074;BME280;64776;42.636;24.358;2023-02-12T01:08:58;90607.38;;;-4.78;65.44
76074;BME280;64776;42.636;24.358;2023-02-12T01:11:58;90607.06;;;-4.62;63.94
76074;BME280;64776;42.636;24.358;2023-02-12T01:15:00;90593.34;;;-4.52;64.57
76074;BME280;64776;42.636;24.358;2023-02-12T01:18:02;90588.50;;;-4.47;64.06
76074;BME280;64776;42.636;24.358;2023-02-12T01:21:08;90593.38;;;-4.42;63.04
76074;BME280;64776;42.636;24.358;2023-02-12T01:24:09;90589.63;;;-4.44;63.21
76074;BME280;64776;42.636;24.358;2023-02-12T01:27:10;90581.16;;;-4.02;61.44
76074;BME280;64776;42.636;24.358;2023-02-12T01:30:12;90570.00;;;-3.61;60.65
76074;BME280;64776;42.636;24.358;2023-02-12T01:33:15;90576.69;;;-3.60;59.51
76074;BME280;64776;42.636;24.358;2023-02-12T01:36:16;90567.75;;;-3.66;59.48
76074;BME280;64776;42.636;24.358;2023-02-12T01:39:17;90561.41;;;-3.79;60.15
76074;BME280;64776;42.636;24.358;2023-02-12T01:42:18;90567.03;;;-3.84;59.56
76074;BME280;64776;42.636;24.358;2023-02-12T01:45:44;90555.84;;;-3.88;60.52
76074;BME280;64776;42.636;24.358;2023-02-12T01:48:47;90550.63;;;-3.81;59.50
76074;BME280;64776;42.636;24.358;2023-02-12T01:51:49;90556.19;;;-3.54;58.68
76074;BME280;64776;42.636;24.358;2023-02-12T01:54:53;90548.38;;;-3.58;58.49
76074;BME280;64776;42.636;24.358;2023-02-12T01:57:55;90532.22;;;-3.07;57.13
76074;BME280;64776;42.636;24.358;2023-02-12T02:00:56;90542.56;;;-2.75;56.06
76074;BME280;64776;42.636;24.358;2023-02-12T02:04:05;90510.66;;;-2.42;56.50
76074;BME280;64776;42.636;24.358;2023-02-12T02:07:07;90509.44;;;-2.23;55.96
76074;BME280;64776;42.636;24.358;2023-02-12T02:10:09;90504.59;;;-2.25;56.57
76074;BME280;64776;42.636;24.358;2023-02-12T02:13:10;90516.75;;;-2.01;59.17
76074;BME280;64776;42.636;24.358;2023-02-12T02:16:17;90525.50;;;-2.25;55.81
76074;BME280;64776;42.636;24.358;2023-02-12T02:19:40;90521.09;;;-2.38;57.25
76074;BME280;64776;42.636;24.358;2023-02-12T02:22:49;90506.66;;;-2.54;56.96
76074;BME280;64776;42.636;24.358;2023-02-12T02:26:13;90523.47;;;-2.65;56.82
76074;BME280;64776;42.636;24.358;2023-02-12T02:29:38;90511.25;;;-2.79;56.63
76074;BME280;64776;42.636;24.358;2023-02-12T02:32:49;90515.69;;;-2.72;56.69
76074;BME280;64776;42.636;24.358;2023-02-12T02:36:02;90518.72;;;-2.84;57.34
76074;BME280;64776;42.636;24.358;2023-02-12T02:39:15;90531.81;;;-2.91;57.67
76074;BME280;64776;42.636;24.358;2023-02-12T02:42:24;90535.53;;;-2.92;58.30
76074;BME280;64776;42.636;24.358;2023-02-12T02:45:32;90539.28;;;-2.97;58.68
76074;BME280;64776;42.636;24.358;2023-02-12T02:48:41;90545.28;;;-3.07;59.50
76074;BME280;64776;42.636;24.358;2023-02-12T02:51:47;90549.38;;;-3.02;59.12
76074;BME280;64776;42.636;24.358;2023-02-12T02:54:51;90563.16;;;-2.98;59.29
76074;BME280;64776;42.636;24.358;2023-02-12T02:57:57;90563.13;;;-2.91;59.52
76074;BME280;64776;42.636;24.358;2023-02-12T03:01:04;90553.06;;;-2.89;59.20
76074;BME280;64776;42.636;24.358;2023-02-12T03:04:12;90559.75;;;-2.88;59.46
76074;BME280;64776;42.636;24.358;2023-02-12T03:07:19;90566.06;;;-2.75;59.26
76074;BME280;64776;42.636;24.358;2023-02-12T03:10:24;90572.34;;;-2.66;59.18
76074;BME280;64776;42.636;24.358;2023-02-12T03:13:32;90571.63;;;-2.66;58.95
76074;BME280;64776;42.636;24.358;2023-02-12T03:16:39;90558.91;;;-2.68;59.08
76074;BME280;64776;42.636;24.358;2023-02-12T03:19:46;90558.88;;;-2.57;59.13
76074;BME280;64776;42.636;24.358;2023-02-12T03:22:53;90564.47;;;-2.55;59.40
76074;BME280;64776;42.636;24.358;2023-02-12T03:25:58;90542.47;;;-2.54;59.66
76074;BME280;64776;42.636;24.358;2023-02-12T03:29:01;90549.94;;;-2.56;59.88
76074;BME280;64776;42.636;24.358;2023-02-12T03:32:12;90544.28;;;-2.47;59.61
76074;BME280;64776;42.636;24.358;2023-02-12T03:35:20;90557.72;;;-2.45;59.52
76074;BME280;64776;42.636;24.358;2023-02-12T03:38:32;90556.53;;;-2.34;59.87
76074;BME280;64776;42.636;24.358;2023-02-12T03:41:41;90565.09;;;-2.30;59.85
76074;BME280;64776;42.636;24.358;2023-02-12T03:44:47;90579.28;;;-2.31;59.46
76074;BME280;64776;42.636;24.358;2023-02-12T03:47:56;90578.56;;;-2.38;59.91
76074;BME280;64776;42.636;24.358;2023-02-12T03:51:08;90568.13;;;-2.38;59.90
76074;BME280;64776;42.636;24.358;2023-02-12T03:54:15;90583.06;;;-2.42;59.98
76074;BME280;64776;42.636;24.358;2023-02-12T03:57:19;90563.66;;;-2.45;60.39
76074;BME280;64776;42.636;24.358;2023-02-12T04:00:22;90561.09;;;-2.52;60.90
76074;BME280;64776;42.636;24.358;2023-02-12T04:03:23;90564.38;;;-2.41;60.82
76074;BME280;64776;42.636;24.358;2023-02-12T04:06:27;90562.16;;;-2.42;60.65
76074;BME280;64776;42.636;24.358;2023-02-12T04:09:28;90566.97;;;-2.34;60.94
76074;BME280;64776;42.636;24.358;2023-02-12T04:12:36;90584.50;;;-2.31;61.31
76074;BME280;64776;42.636;24.358;2023-02-12T04:16:00;90594.97;;;-2.31;61.44
76074;BME280;64776;42.636;24.358;2023-02-12T04:19:02;90601.31;;;-2.32;61.69
76074;BME280;64776;42.636;24.358;2023-02-12T04:22:16;90589.75;;;-2.34;61.79
76074;BME280;64776;42.636;24.358;2023-02-12T04:25:30;90593.50;;;-2.35;62.43
76074;BME280;64776;42.636;24.358;2023-02-12T04:28:43;90586.72;;;-2.26;61.67
76074;BME280;64776;42.636;24.358;2023-02-12T04:31:51;90594.25;;;-2.35;61.96
76074;BME280;64776;42.636;24.358;2023-02-12T04:34:58;90600.97;;;-2.37;62.76
76074;BME280;64776;42.636;24.358;2023-02-12T04:38:07;90609.16;;;-2.39;63.32
76074;BME280;64776;42.636;24.358;2023-02-12T04:41:09;90612.19;;;-2.44;63.88
76074;BME280;64776;42.636;24.358;2023-02-12T04:44:18;90608.41;;;-2.36;63.46
76074;BME280;64776;42.636;24.358;2023-02-12T04:47:21;90601.72;;;-2.40;63.67
76074;BME280;64776;42.636;24.358;2023-02-12T04:50:22;90616.63;;;-2.41;63.38
76074;BME280;64776;42.636;24.358;2023-02-12T04:53:24;90631.59;;;-2.41;64.20
76074;BME280;64776;42.636;24.358;2023-02-12T04:56:25;90624.78;;;-2.28;64.30
76074;BME280;64776;42.636;24.358;2023-02-12T04:59:26;90629.28;;;-2.25;64.64
76074;BME280;64776;42.636;24.358;2023-02-12T05:02:27;90647.19;;;-2.27;64.53
76074;BME280;64776;42.636;24.358;2023-02-12T05:05:28;90637.50;;;-2.27;64.70
76074;BME280;64776;42.636;24.358;2023-02-12T05:08:30;90647.59;;;-2.32;65.25
76074;BME280;64776;42.636;24.358;2023-02-12T05:11:31;90649.44;;;-2.29;64.63
76074;BME280;64776;42.636;24.358;2023-02-12T05:14:32;90658.81;;;-2.39;65.10
76074;BME280;64776;42.636;24.358;2023-02-12T05:17:33;90665.91;;;-2.36;65.15
76074;BME280;64776;42.636;24.358;2023-02-12T05:20:34;90665.16;;;-2.40;65.62
76074;BME280;64776;42.636;24.358;2023-02-12T05:23:38;90670.00;;;-2.35;65.55
76074;BME280;64776;42.636;24.358;2023-02-12T05:26:39;90667.72;;;-2.26;65.70
76074;BME280;64776;42.636;24.358;2023-02-12T05:29:40;90676.34;;;-2.29;65.99
76074;BME280;64776;42.636;24.358;2023-02-12T05:32:41;90674.03;;;-2.20;65.53
76074;BME280;64776;42.636;24.358;2023-02-12T05:35:42;90677.00;;;-2.18;65.68
76074;BME280;64776;42.636;24.358;2023-02-12T05:38:44;90684.50;;;-2.20;65.95
76074;BME280;64776;42.636;24.358;2023-02-12T05:41:45;90689.34;;;-2.22;64.61
76074;BME280;64776;42.636;24.358;2023-02-12T05:44:46;90678.16;;;-2.19;64.14
76074;BME280;64776;42.636;24.358;2023-02-12T05:47:46;90691.22;;;-2.19;64.11
76074;BME280;64776;42.636;24.358;2023-02-12T05:50:47;90705.03;;;-2.15;64.23
76074;BME280;64776;42.636;24.358;2023-02-12T05:53:51;90711.72;;;-2.07;64.39
76074;BME280;64776;42.636;24.358;2023-02-12T05:56:52;90706.84;;;-2.05;64.33
76074;BME280;64776;42.636;24.358;2023-02-12T05:59:53;90709.09;;;-2.07;64.10
76074;BME280;64776;42.636;24.358;2023-02-12T06:02:54;90715.81;;;-2.09;64.41
76074;BME280;64776;42.636;24.358;2023-02-12T06:05:55;90724.38;;;-2.05;64.41
76074;BME280;64776;42.636;24.358;2023-02-12T06:08:57;90729.63;;;-2.09;64.43
76074;BME280;64776;42.636;24.358;2023-02-12T06:11:58;90738.97;;;-2.08;64.38
76074;BME280;64776;42.636;24.358;2023-02-12T06:14:59;90732.25;;;-2.16;64.45
76074;BME280;64776;42.636;24.358;2023-02-12T06:18:00;90733.38;;;-2.10;64.85
76074;BME280;64776;42.636;24.358;2023-02-12T06:21:02;90730.38;;;-2.05;65.04
76074;BME280;64776;42.636;24.358;2023-02-12T06:24:04;90732.94;;;-1.98;65.07
76074;BME280;64776;42.636;24.358;2023-02-12T06:27:05;90734.81;;;-1.95;65.05
76074;BME280;64776;42.636;24.358;2023-02-12T06:30:08;90730.34;;;-1.94;64.93
76074;BME280;64776;42.636;24.358;2023-02-12T06:33:08;90743.00;;;-1.86;65.17
76074;BME280;64776;42.636;24.358;2023-02-12T06:36:09;90741.13;;;-1.82;64.54
76074;BME280;64776;42.636;24.358;2023-02-12T06:39:13;90737.34;;;-1.81;65.04
76074;BME280;64776;42.636;24.358;2023-02-12T06:42:14;90747.81;;;-1.81;64.77
76074;BME280;64776;42.636;24.358;2023-02-12T06:45:14;90747.88;;;-1.88;65.49
76074;BME280;64776;42.636;24.358;2023-02-12T06:48:15;90742.63;;;-1.84;65.15
76074;BME280;64776;42.636;24.358;2023-02-12T06:51:17;90748.59;;;-1.84;65.69
76074;BME280;64776;42.636;24.358;2023-02-12T06:54:20;90736.97;;;-1.79;65.59
76074;BME280;64776;42.636;24.358;2023-02-12T06:57:20;90735.44;;;-1.73;65.11
76074;BME280;64776;42.636;24.358;2023-02-12T07:00:22;90732.84;;;-1.70;65.59
76074;BME280;64776;42.636;24.358;2023-02-12T07:03:23;90735.00;;;-1.57;65.44
76074;BME280;64776;42.636;24.358;2023-02-12T07:06:24;90749.22;;;-1.55;65.13
76074;BME280;64776;42.636;24.358;2023-02-12T07:09:27;90748.78;;;-1.46;65.46
76074;BME280;64776;42.636;24.358;2023-02-12T07:12:28;90747.66;;;-1.52;65.46
76074;BME280;64776;42.636;24.358;2023-02-12T07:15:29;90743.94;;;-1.51;65.60
76074;BME280;64776;42.636;24.358;2023-02-12T07:18:30;90733.34;;;-1.34;65.21
76074;BME280;64776;42.636;24.358;2023-02-12T07:21:30;90731.78;;;-1.21;64.30
76074;BME280;64776;42.636;24.358;2023-02-12T07:24:33;90733.97;;;-1.12;63.41
76074;BME280;64776;42.636;24.358;2023-02-12T07:27:35;90728.63;;;-0.98;63.38
76074;BME280;64776;42.636;24.358;2023-02-12T07:30:36;90731.41;;;-0.71;62.37
76074;BME280;64776;42.636;24.358;2023-02-12T07:33:38;90720.97;;;-0.75;62.65
76074;BME280;64776;42.636;24.358;2023-02-12T07:36:39;90730.22;;;-0.63;62.12
76074;BME280;64776;42.636;24.358;2023-02-12T07:39:42;90735.56;;;-0.33;61.76
76074;BME280;64776;42.636;24.358;2023-02-12T07:42:43;90733.31;;;-0.35;61.51
76074;BME280;64776;42.636;24.358;2023-02-12T07:45:43;90743.44;;;0.00;61.54
76074;BME280;64776;42.636;24.358;2023-02-12T07:48:45;90746.72;;;-0.26;61.30
76074;BME280;64776;42.636;24.358;2023-02-12T07:51:46;90742.34;;;-0.36;61.62
76074;BME280;64776;42.636;24.358;2023-02-12T07:54:49;90738.47;;;-0.24;61.74
76074;BME280;64776;42.636;24.358;2023-02-12T07:57:49;90742.78;;;-0.07;61.02
76074;BME280;64776;42.636;24.358;2023-02-12T08:00:50;90743.25;;;-0.16;61.01
76074;BME280;64776;42.636;24.358;2023-02-12T08:03:51;90738.06;;;-0.60;62.38
76074;BME280;64776;42.636;24.358;2023-02-12T08:06:54;90740.44;;;-0.76;63.29
76074;BME280;64776;42.636;24.358;2023-02-12T08:09:57;90744.78;;;-0.59;63.64
76074;BME280;64776;42.636;24.358;2023-02-12T08:12:57;90741.50;;;-0.70;62.58
76074;BME280;64776;42.636;24.358;2023-02-12T08:16:01;90749.09;;;-0.38;63.01
76074;BME280;64776;42.636;24.358;2023-02-12T08:19:03;90747.38;;;-0.18;62.18
76074;BME280;64776;42.636;24.358;2023-02-12T08:22:04;90754.28;;;-0.35;61.89
76074;BME280;64776;42.636;24.358;2023-02-12T08:25:06;90759.84;;;-0.26;61.86
76074;BME280;64776;42.636;24.358;2023-02-12T08:28:07;90759.22;;;-0.03;61.35
76074;BME280;64776;42.636;24.358;2023-02-12T08:31:10;90761.97;;;-0.14;60.69
76074;BME280;64776;42.636;24.358;2023-02-12T08:34:17;90775.66;;;-0.36;61.62
76074;BME280;64776;42.636;24.358;2023-02-12T08:37:19;90780.63;;;-0.49;61.96
76074;BME280;64776;42.636;24.358;2023-02-12T08:40:21;90768.31;;;-0.55;62.37
76074;BME280;64776;42.636;24.358;2023-02-12T08:43:22;90775.47;;;-0.56;62.94
76074;BME280;64776;42.636;24.358;2023-02-12T08:46:24;90782.84;;;-0.47;63.01
76074;BME280;64776;42.636;24.358;2023-02-12T08:49:27;90778.41;;;-0.50;62.14
76074;BME280;64776;42.636;24.358;2023-02-12T08:52:28;90777.59;;;-0.44;62.99
76074;BME280;64776;42.636;24.358;2023-02-12T08:55:30;90786.41;;;-0.24;61.96
76074;BME280;64776;42.636;24.358;2023-02-12T08:58:31;90786.13;;;0.05;60.84
76074;BME280;64776;42.636;24.358;2023-02-12T09:01:33;90779.88;;;0.29;61.03
76074;BME280;64776;42.636;24.358;2023-02-12T09:04:37;90790.44;;;0.55;59.99
76074;BME280;64776;42.636;24.358;2023-02-12T09:07:38;90793.59;;;0.73;59.34
76074;BME280;64776;42.636;24.358;2023-02-12T09:10:40;90799.25;;;0.38;59.22
76074;BME280;64776;42.636;24.358;2023-02-12T09:13:42;90800.78;;;0.36;59.51
76074;BME280;64776;42.636;24.358;2023-02-12T09:16:43;90795.19;;;0.34;59.17
76074;BME280;64776;42.636;24.358;2023-02-12T09:19:44;90797.81;;;0.64;58.00
76074;BME280;64776;42.636;24.358;2023-02-12T09:22:44;90805.78;;;0.57;59.33
76074;BME280;64776;42.636;24.358;2023-02-12T09:25:47;90796.94;;;1.04;57.95
76074;BME280;64776;42.636;24.358;2023-02-12T09:28:48;90805.94;;;1.56;56.92
76074;BME280;64776;42.636;24.358;2023-02-12T09:31:50;90809.59;;;1.86;55.38
76074;BME280;64776;42.636;24.358;2023-02-12T09:34:50;90814.13;;;2.47;54.91
76074;BME280;64776;42.636;24.358;2023-02-12T09:37:51;90802.53;;;2.65;53.14
76074;BME280;64776;42.636;24.358;2023-02-12T09:41:08;90809.34;;;2.62;53.16
76074;BME280;64776;42.636;24.358;2023-02-12T09:44:20;90816.38;;;2.49;55.09
76074;BME280;64776;42.636;24.358;2023-02-12T09:47:26;90808.03;;;2.31;53.85
76074;BME280;64776;42.636;24.358;2023-02-12T09:50:36;90811.59;;;1.78;55.74
76074;BME280;64776;42.636;24.358;2023-02-12T09:53:44;90806.25;;;1.35;57.66
76074;BME280;64776;42.636;24.358;2023-02-12T09:56:50;90819.41;;;1.35;57.27
76074;BME280;64776;42.636;24.358;2023-02-12T09:59:54;90825.00;;;1.37;57.02
76074;BME280;64776;42.636;24.358;2023-02-12T10:02:59;90827.66;;;1.07;57.67
76074;BME280;64776;42.636;24.358;2023-02-12T10:06:04;90829.28;;;0.34;59.76
76074;BME280;64776;42.636;24.358;2023-02-12T10:09:23;90833.88;;;0.60;59.98
76074;BME280;64776;42.636;24.358;2023-02-12T10:12:36;90825.56;;;0.95;58.60
76074;BME280;64776;42.636;24.358;2023-02-12T10:15:43;90837.00;;;1.38;58.21
76074;BME280;64776;42.636;24.358;2023-02-12T10:19:11;90835.69;;;1.77;57.06
76074;BME280;64776;42.636;24.358;2023-02-12T10:22:24;90843.97;;;1.48;56.68
76074;BME280;64776;42.636;24.358;2023-02-12T10:25:35;90849.69;;;1.93;56.93
76074;BME280;64776;42.636;24.358;2023-02-12T10:28:41;90843.41;;;2.53;54.90
76074;BME280;64776;42.636;24.358;2023-02-12T10:31:44;90854.97;;;2.36;55.70
76074;BME280;64776;42.636;24.358;2023-02-12T10:34:47;90853.19;;;2.53;54.23
76074;BME280;64776;42.636;24.358;2023-02-12T10:37:55;90845.50;;;2.81;53.37
76074;BME280;64776;42.636;24.358;2023-02-12T10:40:57;90847.16;;;2.52;52.84
76074;BME280;64776;42.636;24.358;2023-02-12T10:44:00;90851.22;;;2.76;53.20
76074;BME280;64776;42.636;24.358;2023-02-12T10:47:00;90851.50;;;2.62;53.97
76074;BME280;64776;42.636;24.358;2023-02-12T10:50:01;90851.56;;;2.59;53.29
76074;BME280;64776;42.636;24.358;2023-02-12T10:53:02;90855.88;;;2.69;53.30
76074;BME280;64776;42.636;24.358;2023-02-12T10:56:13;90848.06;;;2.85;51.42
76074;BME280;64776;42.636;24.358;2023-02-12T10:59:22;90855.41;;;2.54;52.99
76074;BME280;64776;42.636;24.358;2023-02-12T11:02:26;90862.44;;;2.41;53.38
76074;BME280;64776;42.636;24.358;2023-02-12T11:05:29;90861.09;;;2.53;53.78
76074;BME280;64776;42.636;24.358;2023-02-12T11:08:33;90861.56;;;2.87;53.34
76074;BME280;64776;42.636;24.358;2023-02-12T11:11:37;90842.16;;;3.16;51.85
76074;BME280;64776;42.636;24.358;2023-02-12T11:14:40;90858.16;;;3.77;50.18
76074;BME280;64776;42.636;24.358;2023-02-12T11:17:57;90850.28;;;3.93;49.23
76074;BME280;64776;42.636;24.358;2023-02-12T11:21:00;90844.72;;;4.20;49.23
76074;BME280;64776;42.636;24.358;2023-02-12T11:24:29;90845.56;;;4.01;48.51
76074;BME280;64776;42.636;24.358;2023-02-12T11:27:30;90843.53;;;4.37;47.45
76074;BME280;64776;42.636;24.358;2023-02-12T11:30:33;90846.00;;;4.44;47.26
76074;BME280;64776;42.636;24.358;2023-02-12T11:33:35;90844.44;;;4.75;47.18
76074;BME280;64776;42.636;24.358;2023-02-12T11:36:39;90846.28;;;4.91;47.48
76074;BME280;64776;42.636;24.358;2023-02-12T11:39:45;90844.28;;;4.38;47.31
76074;BME280;64776;42.636;24.358;2023-02-12T11:42:51;90842.69;;;4.85;46.94
76074;BME280;64776;42.636;24.358;2023-02-12T11:45:55;90850.00;;;4.65;46.92
76074;BME280;64776;42.636;24.358;2023-02-12T11:48:57;90857.28;;;4.61;45.80
76074;BME280;64776;42.636;24.358;2023-02-12T11:52:00;90855.84;;;4.72;45.10
76074;BME280;64776;42.636;24.358;2023-02-12T11:55:05;90851.28;;;5.43;45.04
76074;BME280;64776;42.636;24.358;2023-02-12T11:58:14;90850.38;;;5.87;44.46
76074;BME280;64776;42.636;24.358;2023-02-12T12:01:20;90849.09;;;5.92;44.52
76074;BME280;64776;42.636;24.358;2023-02-12T12:04:29;90860.09;;;6.03;42.83
76074;BME280;64776;42.636;24.358;2023-02-12T12:07:52;90853.31;;;5.76;43.83
76074;BME280;64776;42.636;24.358;2023-02-12T12:10:58;90848.53;;;5.46;43.92
76074;BME280;64776;42.636;24.358;2023-02-12T12:14:04;90853.41;;;5.73;44.04
76074;BME280;64776;42.636;24.358;2023-02-12T12:17:12;90859.22;;;5.43;43.53
76074;BME280;64776;42.636;24.358;2023-02-12T12:20:18;90850.22;;;5.65;44.54
76074;BME280;64776;42.636;24.358;2023-02-12T12:23:23;90850.88;;;6.20;42.88
76074;BME280;64776;42.636;24.358;2023-02-12T12:26:30;90853.69;;;6.38;42.09
76074;BME280;64776;42.636;24.358;2023-02-12T12:29:41;90861.69;;;6.94;42.55
76074;BME280;64776;42.636;24.358;2023-02-12T12:32:46;90864.66;;;6.96;40.33
76074;BME280;64776;42.636;24.358;2023-02-12T12:36:02;90866.75;;;6.79;39.37
76074;BME280;64776;42.636;24.358;2023-02-12T12:39:15;90871.59;;;6.81;40.47
76074;BME280;64776;42.636;24.358;2023-02-12T12:45:55;90871.34;;;6.07;41.54
76074;BME280;64776;42.636;24.358;2023-02-12T12:49:22;90872.72;;;6.11;40.46
76074;BME280;64776;42.636;24.358;2023-02-12T12:56:04;90887.63;;;5.80;41.83
76074;BME280;64776;42.636;24.358;2023-02-12T13:06:29;90894.16;;;4.80;45.03
76074;BME280;64776;42.636;24.358;2023-02-12T13:09:47;90895.84;;;4.58;46.29
76074;BME280;64776;42.636;24.358;2023-02-12T13:13:05;90894.06;;;4.39;45.80
76074;BME280;64776;42.636;24.358;2023-02-12T13:16:14;90902.47;;;4.50;46.55
76074;BME280;64776;42.636;24.358;2023-02-12T13:19:26;90910.88;;;4.45;44.96
76074;BME280;64776;42.636;24.358;2023-02-12T13:22:41;90918.50;;;4.27;45.85
76074;BME280;64776;42.636;24.358;2023-02-12T13:25:50;90911.41;;;4.24;46.88
76074;BME280;64776;42.636;24.358;2023-02-12T13:28:56;90924.09;;;4.29;44.94
76074;BME280;64776;42.636;24.358;2023-02-12T13:32:01;90922.59;;;3.96;46.17
76074;BME280;64776;42.636;24.358;2023-02-12T13:35:05;90922.94;;;3.46;46.08
76074;BME280;64776;42.636;24.358;2023-02-12T13:38:12;90939.69;;;3.36;48.11
76074;BME280;64776;42.636;24.358;2023-02-12T13:41:16;90940.59;;;3.65;50.23
76074;BME280;64776;42.636;24.358;2023-02-12T13:44:19;90946.72;;;3.62;47.68
76074;BME280;64776;42.636;24.358;2023-02-12T13:47:29;90954.13;;;3.32;48.15
76074;BME280;64776;42.636;24.358;2023-02-12T13:50:40;90940.75;;;3.94;48.92
76074;BME280;64776;42.636;24.358;2023-02-12T13:53:57;90949.03;;;3.60;50.24
76074;BME280;64776;42.636;24.358;2023-02-12T13:57:02;90962.25;;;3.57;50.49
76074;BME280;64776;42.636;24.358;2023-02-12T14:03:50;90969.16;;;3.70;50.25
76074;BME280;64776;42.636;24.358;2023-02-12T14:06:53;90974.25;;;3.22;50.35
76074;BME280;64776;42.636;24.358;2023-02-12T14:10:04;90976.31;;;2.68;51.42
76074;BME280;64776;42.636;24.358;2023-02-12T14:13:18;90981.66;;;3.07;50.78
76074;BME280;64776;42.636;24.358;2023-02-12T14:16:38;90986.28;;;3.43;51.79
76074;BME280;64776;42.636;24.358;2023-02-12T14:19:54;90978.16;;;4.08;50.97
76074;BME280;64776;42.636;24.358;2023-02-12T14:26:19;90997.31;;;3.57;48.04
76074;BME280;64776;42.636;24.358;2023-02-12T14:29:21;90995.41;;;3.38;48.51
76074;BME280;64776;42.636;24.358;2023-02-12T14:36:16;91029.19;;;2.58;52.40
76074;BME280;64776;42.636;24.358;2023-02-12T14:39:28;91028.97;;;2.48;52.80
76074;BME280;64776;42.636;24.358;2023-02-12T14:42:54;91028.03;;;2.59;53.38
76074;BME280;64776;42.636;24.358;2023-02-12T14:45:56;91033.88;;;2.46;52.04
76074;BME280;64776;42.636;24.358;2023-02-12T14:48:59;91040.75;;;2.14;53.95
76074;BME280;64776;42.636;24.358;2023-02-12T14:52:02;91052.97;;;1.71;54.39
76074;BME280;64776;42.636;24.358;2023-02-12T14:55:16;91062.41;;;1.64;55.99
76074;BME280;64776;42.636;24.358;2023-02-12T14:58:21;91066.00;;;1.47;55.94
76074;BME280;64776;42.636;24.358;2023-02-12T15:01:29;91066.84;;;1.37;56.30
76074;BME280;64776;42.636;24.358;2023-02-12T15:04:35;91066.41;;;1.42;56.13
76074;BME280;64776;42.636;24.358;2023-02-12T15:07:43;91074.38;;;1.35;55.38
76074;BME280;64776;42.636;24.358;2023-02-12T15:10:48;91081.25;;;1.22;55.96
76074;BME280;64776;42.636;24.358;2023-02-12T15:13:56;91089.03;;;1.33;56.07
76074;BME280;64776;42.636;24.358;2023-02-12T15:17:02;91094.91;;;1.47;57.48
76074;BME280;64776;42.636;24.358;2023-02-12T15:20:12;91096.16;;;1.36;54.90
76074;BME280;64776;42.636;24.358;2023-02-12T15:23:38;91100.63;;;1.39;56.32
76074;BME280;64776;42.636;24.358;2023-02-12T15:26:43;91102.03;;;1.50;55.08
76074;BME280;64776;42.636;24.358;2023-02-12T15:29:47;91105.81;;;1.46;55.89
76074;BME280;64776;42.636;24.358;2023-02-12T15:32:49;91106.56;;;1.46;56.41
76074;BME280;64776;42.636;24.358;2023-02-12T15:35:51;91113.00;;;1.42;56.59
76074;BME280;64776;42.636;24.358;2023-02-12T15:38:54;91119.47;;;1.34;56.67
76074;BME280;64776;42.636;24.358;2023-02-12T15:41:55;91122.56;;;1.25;57.59
76074;BME280;64776;42.636;24.358;2023-02-12T15:45:16;91135.34;;;1.23;58.00
76074;BME280;64776;42.636;24.358;2023-02-12T15:48:18;91138.34;;;1.22;58.56
76074;BME280;64776;42.636;24.358;2023-02-12T15:51:26;91152.72;;;1.10;60.36
76074;BME280;64776;42.636;24.358;2023-02-12T15:54:28;91159.50;;;1.04;59.49
76074;BME280;64776;42.636;24.358;2023-02-12T15:57:30;91167.44;;;0.97;59.34
76074;BME280;64776;42.636;24.358;2023-02-12T16:00:38;91171.69;;;0.84;60.35
76074;BME280;64776;42.636;24.358;2023-02-12T16:03:39;91177.75;;;0.70;60.76
76074;BME280;64776;42.636;24.358;2023-02-12T16:06:40;91184.47;;;0.75;59.57
76074;BME280;64776;42.636;24.358;2023-02-12T16:09:41;91191.22;;;0.79;59.35
76074;BME280;64776;42.636;24.358;2023-02-12T16:12:43;91192.06;;;0.66;58.21
76074;BME280;64776;42.636;24.358;2023-02-12T16:15:45;91191.28;;;0.69;59.66
76074;BME280;64776;42.636;24.358;2023-02-12T16:19:13;91193.34;;;0.95;59.48
76074;BME280;64776;42.636;24.358;2023-02-12T16:22:17;91197.53;;;0.89;59.45
76074;BME280;64776;42.636;24.358;2023-02-12T16:25:20;91211.91;;;0.74;60.03
76074;BME280;64776;42.636;24.358;2023-02-12T16:28:26;91217.91;;;0.71;61.46
76074;BME280;64776;42.636;24.358;2023-02-12T16:31:29;91226.88;;;0.77;61.47
76074;BME280;64776;42.636;24.358;2023-02-12T16:34:33;91231.16;;;0.46;63.56
76074;BME280;64776;42.636;24.358;2023-02-12T16:37:45;91239.38;;;0.52;62.34
76074;BME280;64776;42.636;24.358;2023-02-12T16:41:14;91258.53;;;0.42;61.67